sensor_id;sensor_type;location;lat;lon;timestamp;temperature;humidity
52656;SHT85;35474;51.032;6.998;2023-07-29T00:00:34;19.60;90.95
52656;SHT85;35474;51.032;6.998;2023-07-29T00:03:01;19.60;91.03
52656;SHT85;35474;51.032;6.998;2023-07-29T00:05:28;19.59;90.95
52656;SHT85;35474;51.032;6.998;2023-07-29T00:07:56;19.53;90.92
52656;SHT85;35474;51.032;6.998;2023-07-29T00:10:23;19.57;91.00
52656;SHT85;35474;51.032;6.998;2023-07-29T00:12:49;19.62;90.92
52656;SHT85;35474;51.032;6.998;2023-07-29T00:15:16;19.52;91.17
52656;SHT85;35474;51.032;6.998;2023-07-29T00:17:42;19.53;91.17
52656;SHT85;35474;51.032;6.998;2023-07-29T00:20:09;19.49;91.15
52656;SHT85;35474;51.032;6.998;2023-07-29T00:22:35;19.43;91.36
52656;SHT85;35474;51.032;6.998;2023-07-29T00:25:02;19.45;91.52
52656;SHT85;35474;51.032;6.998;2023-07-29T00:27:29;19.41;91.47
52656;SHT85;35474;51.032;6.998;2023-07-29T00:29:55;19.42;91.51
52656;SHT85;35474;51.032;6.998;2023-07-29T00:32:22;19.43;91.58
52656;SHT85;35474;51.032;6.998;2023-07-29T00:34:48;19.38;91.64
52656;SHT85;35474;51.032;6.998;2023-07-29T00:37:14;19.39;91.63
52656;SHT85;35474;51.032;6.998;2023-07-29T00:39:41;19.35;91.93
52656;SHT85;35474;51.032;6.998;2023-07-29T00:42:08;19.26;92.09
52656;SHT85;35474;51.032;6.998;2023-07-29T00:44:35;19.26;92.29
52656;SHT85;35474;51.032;6.998;2023-07-29T00:47:02;19.25;92.40
52656;SHT85;35474;51.032;6.998;2023-07-29T00:49:30;19.26;92.63
52656;SHT85;35474;51.032;6.998;2023-07-29T00:51:58;19.18;92.75
52656;SHT85;35474;51.032;6.998;2023-07-29T00:54:24;19.18;92.85
52656;SHT85;35474;51.032;6.998;2023-07-29T00:56:51;19.15;93.02
52656;SHT85;35474;51.032;6.998;2023-07-29T00:59:17;19.15;93.07
52656;SHT85;35474;51.032;6.998;2023-07-29T01:01:44;19.14;93.27
52656;SHT85;35474;51.032;6.998;2023-07-29T01:04:11;19.14;93.20
52656;SHT85;35474;51.032;6.998;2023-07-29T01:06:53;19.16;93.20
52656;SHT85;35474;51.032;6.998;2023-07-29T01:15:12;19.11;93.47
52656;SHT85;35474;51.032;6.998;2023-07-29T01:17:47;19.09;93.58
52656;SHT85;35474;51.032;6.998;2023-07-29T01:20:19;19.09;93.61
52656;SHT85;35474;51.032;6.998;2023-07-29T01:22:47;19.09;93.65
52656;SHT85;35474;51.032;6.998;2023-07-29T01:25:16;19.09;93.67
52656;SHT85;35474;51.032;6.998;2023-07-29T01:27:44;19.05;93.78
52656;SHT85;35474;51.032;6.998;2023-07-29T01:30:11;19.05;93.85
52656;SHT85;35474;51.032;6.998;2023-07-29T01:32:43;19.04;94.03
52656;SHT85;35474;51.032;6.998;2023-07-29T01:38:03;19.05;94.01
52656;SHT85;35474;51.032;6.998;2023-07-29T01:40:33;19.02;94.06
52656;SHT85;35474;51.032;6.998;2023-07-29T01:43:00;19.06;93.96
52656;SHT85;35474;51.032;6.998;2023-07-29T01:45:26;19.02;93.87
52656;SHT85;35474;51.032;6.998;2023-07-29T01:47:53;19.05;94.01
52656;SHT85;35474;51.032;6.998;2023-07-29T01:50:19;19.09;93.97
52656;SHT85;35474;51.032;6.998;2023-07-29T01:52:46;19.12;93.89
52656;SHT85;35474;51.032;6.998;2023-07-29T01:55:12;19.08;93.94
52656;SHT85;35474;51.032;6.998;2023-07-29T01:57:39;19.39;94.13
52656;SHT85;35474;51.032;6.998;2023-07-29T02:00:05;19.28;93.93
52656;SHT85;35474;51.032;6.998;2023-07-29T02:02:32;19.22;93.93
52656;SHT85;35474;51.032;6.998;2023-07-29T02:04:59;19.29;93.70
52656;SHT85;35474;51.032;6.998;2023-07-29T02:07:26;19.31;93.49
52656;SHT85;35474;51.032;6.998;2023-07-29T02:09:52;19.23;93.59
52656;SHT85;35474;51.032;6.998;2023-07-29T02:12:19;19.06;94.26
52656;SHT85;35474;51.032;6.998;2023-07-29T02:14:46;18.97;95.09
52656;SHT85;35474;51.032;6.998;2023-07-29T02:17:12;18.89;95.52
52656;SHT85;35474;51.032;6.998;2023-07-29T02:19:39;18.88;95.61
52656;SHT85;35474;51.032;6.998;2023-07-29T02:22:05;18.78;95.89
52656;SHT85;35474;51.032;6.998;2023-07-29T02:24:32;18.74;96.30
52656;SHT85;35474;51.032;6.998;2023-07-29T02:26:58;18.71;96.52
52656;SHT85;35474;51.032;6.998;2023-07-29T02:29:25;18.75;96.55
52656;SHT85;35474;51.032;6.998;2023-07-29T02:31:51;18.81;96.52
52656;SHT85;35474;51.032;6.998;2023-07-29T02:34:18;18.85;96.52
52656;SHT85;35474;51.032;6.998;2023-07-29T02:36:44;18.81;96.43
52656;SHT85;35474;51.032;6.998;2023-07-29T02:39:11;18.87;96.40
52656;SHT85;35474;51.032;6.998;2023-07-29T02:41:38;18.87;96.41
52656;SHT85;35474;51.032;6.998;2023-07-29T02:44:04;18.88;96.44
52656;SHT85;35474;51.032;6.998;2023-07-29T02:46:31;18.91;96.44
52656;SHT85;35474;51.032;6.998;2023-07-29T02:48:58;18.85;96.52
52656;SHT85;35474;51.032;6.998;2023-07-29T02:51:25;18.97;96.50
52656;SHT85;35474;51.032;6.998;2023-07-29T02:53:52;18.91;96.66
52656;SHT85;35474;51.032;6.998;2023-07-29T02:56:18;18.92;96.69
52656;SHT85;35474;51.032;6.998;2023-07-29T02:58:45;18.88;96.68
52656;SHT85;35474;51.032;6.998;2023-07-29T03:01:11;18.88;96.80
52656;SHT85;35474;51.032;6.998;2023-07-29T03:03:38;18.98;96.80
52656;SHT85;35474;51.032;6.998;2023-07-29T03:06:06;18.94;96.82
52656;SHT85;35474;51.032;6.998;2023-07-29T03:08:34;19.02;96.76
52656;SHT85;35474;51.032;6.998;2023-07-29T03:11:05;19.08;96.46
52656;SHT85;35474;51.032;6.998;2023-07-29T03:13:33;19.12;95.97
52656;SHT85;35474;51.032;6.998;2023-07-29T03:16:06;19.18;95.55
52656;SHT85;35474;51.032;6.998;2023-07-29T03:18:35;19.23;95.42
52656;SHT85;35474;51.032;6.998;2023-07-29T03:21:02;19.20;95.36
52656;SHT85;35474;51.032;6.998;2023-07-29T03:23:29;19.16;95.15
52656;SHT85;35474;51.032;6.998;2023-07-29T03:25:57;19.29;94.88
52656;SHT85;35474;51.032;6.998;2023-07-29T03:28:32;19.18;94.84
52656;SHT85;35474;51.032;6.998;2023-07-29T03:31:00;19.16;95.13
52656;SHT85;35474;51.032;6.998;2023-07-29T03:33:28;19.12;95.34
52656;SHT85;35474;51.032;6.998;2023-07-29T03:35:54;19.11;95.47
52656;SHT85;35474;51.032;6.998;2023-07-29T03:38:21;19.05;95.57
52656;SHT85;35474;51.032;6.998;2023-07-29T03:40:47;19.08;95.53
52656;SHT85;35474;51.032;6.998;2023-07-29T03:43:14;19.04;95.37
52656;SHT85;35474;51.032;6.998;2023-07-29T03:45:41;19.05;95.34
52656;SHT85;35474;51.032;6.998;2023-07-29T03:48:07;19.08;95.32
52656;SHT85;35474;51.032;6.998;2023-07-29T03:50:34;19.05;95.32
52656;SHT85;35474;51.032;6.998;2023-07-29T03:53:02;19.11;95.24
52656;SHT85;35474;51.032;6.998;2023-07-29T03:55:30;19.11;95.29
52656;SHT85;35474;51.032;6.998;2023-07-29T03:57:57;19.12;95.37
52656;SHT85;35474;51.032;6.998;2023-07-29T04:00:25;19.11;95.59
52656;SHT85;35474;51.032;6.998;2023-07-29T04:02:51;19.08;95.70
52656;SHT85;35474;51.032;6.998;2023-07-29T04:05:18;19.04;95.68
52656;SHT85;35474;51.032;6.998;2023-07-29T04:07:45;19.05;95.62
52656;SHT85;35474;51.032;6.998;2023-07-29T04:10:12;19.06;95.67
52656;SHT85;35474;51.032;6.998;2023-07-29T04:12:39;19.02;95.79
52656;SHT85;35474;51.032;6.998;2023-07-29T04:15:06;19.11;95.86
52656;SHT85;35474;51.032;6.998;2023-07-29T04:17:33;19.06;95.79
52656;SHT85;35474;51.032;6.998;2023-07-29T04:19:59;19.04;95.76
52656;SHT85;35474;51.032;6.998;2023-07-29T04:22:26;19.08;95.06
52656;SHT85;35474;51.032;6.998;2023-07-29T04:24:53;19.12;94.83
52656;SHT85;35474;51.032;6.998;2023-07-29T04:27:19;19.06;94.49
52656;SHT85;35474;51.032;6.998;2023-07-29T04:29:46;19.09;94.36
52656;SHT85;35474;51.032;6.998;2023-07-29T04:32:12;19.11;94.40
52656;SHT85;35474;51.032;6.998;2023-07-29T04:34:39;19.06;94.32
52656;SHT85;35474;51.032;6.998;2023-07-29T04:37:05;19.06;94.32
52656;SHT85;35474;51.032;6.998;2023-07-29T04:39:32;19.05;94.07
52656;SHT85;35474;51.032;6.998;2023-07-29T04:41:59;19.06;93.99
52656;SHT85;35474;51.032;6.998;2023-07-29T04:44:27;19.02;94.38
52656;SHT85;35474;51.032;6.998;2023-07-29T04:46:53;19.04;94.53
52656;SHT85;35474;51.032;6.998;2023-07-29T04:49:20;19.02;94.68
52656;SHT85;35474;51.032;6.998;2023-07-29T04:51:47;19.04;94.71
52656;SHT85;35474;51.032;6.998;2023-07-29T04:54:13;18.98;94.68
52656;SHT85;35474;51.032;6.998;2023-07-29T04:56:40;19.01;94.62
52656;SHT85;35474;51.032;6.998;2023-07-29T04:59:06;19.01;94.48
52656;SHT85;35474;51.032;6.998;2023-07-29T05:01:34;18.97;94.24
52656;SHT85;35474;51.032;6.998;2023-07-29T05:04:01;19.01;94.06
52656;SHT85;35474;51.032;6.998;2023-07-29T05:06:28;18.98;94.01
52656;SHT85;35474;51.032;6.998;2023-07-29T05:08:56;18.99;93.91
52656;SHT85;35474;51.032;6.998;2023-07-29T05:11:24;19.04;93.77
52656;SHT85;35474;51.032;6.998;2023-07-29T05:13:51;19.01;93.75
52656;SHT85;35474;51.032;6.998;2023-07-29T05:16:18;19.14;93.84
52656;SHT85;35474;51.032;6.998;2023-07-29T05:18:45;19.11;93.85
52656;SHT85;35474;51.032;6.998;2023-07-29T05:21:11;19.08;93.71
52656;SHT85;35474;51.032;6.998;2023-07-29T05:23:40;19.11;93.67
52656;SHT85;35474;51.032;6.998;2023-07-29T05:26:07;19.02;93.47
52656;SHT85;35474;51.032;6.998;2023-07-29T05:28:33;19.04;93.33
52656;SHT85;35474;51.032;6.998;2023-07-29T05:31:00;18.98;93.08
52656;SHT85;35474;51.032;6.998;2023-07-29T05:33:28;18.95;92.85
52656;SHT85;35474;51.032;6.998;2023-07-29T05:35:55;19.08;92.70
52656;SHT85;35474;51.032;6.998;2023-07-29T05:38:21;19.06;92.71
52656;SHT85;35474;51.032;6.998;2023-07-29T05:40:48;19.05;92.70
52656;SHT85;35474;51.032;6.998;2023-07-29T05:43:16;19.05;92.54
52656;SHT85;35474;51.032;6.998;2023-07-29T05:45:42;19.04;92.39
52656;SHT85;35474;51.032;6.998;2023-07-29T05:48:09;19.06;92.29
52656;SHT85;35474;51.032;6.998;2023-07-29T05:50:35;19.11;92.13
52656;SHT85;35474;51.032;6.998;2023-07-29T05:53:02;19.06;92.32
52656;SHT85;35474;51.032;6.998;2023-07-29T05:55:29;19.02;92.04
52656;SHT85;35474;51.032;6.998;2023-07-29T05:57:55;19.08;91.55
52656;SHT85;35474;51.032;6.998;2023-07-29T06:00:24;19.02;90.87
52656;SHT85;35474;51.032;6.998;2023-07-29T06:02:50;19.11;90.37
52656;SHT85;35474;51.032;6.998;2023-07-29T06:05:17;19.22;90.31
52656;SHT85;35474;51.032;6.998;2023-07-29T06:07:43;19.19;90.23
52656;SHT85;35474;51.032;6.998;2023-07-29T06:10:15;19.23;90.41
52656;SHT85;35474;51.032;6.998;2023-07-29T06:12:45;19.19;89.90
52656;SHT85;35474;51.032;6.998;2023-07-29T06:15:12;19.23;88.90
52656;SHT85;35474;51.032;6.998;2023-07-29T06:17:39;19.19;88.91
52656;SHT85;35474;51.032;6.998;2023-07-29T06:20:07;19.25;89.03
52656;SHT85;35474;51.032;6.998;2023-07-29T06:22:34;19.16;88.38
52656;SHT85;35474;51.032;6.998;2023-07-29T06:25:00;19.18;87.02
52656;SHT85;35474;51.032;6.998;2023-07-29T06:27:27;19.23;87.58
52656;SHT85;35474;51.032;6.998;2023-07-29T06:32:35;19.02;87.18
52656;SHT85;35474;51.032;6.998;2023-07-29T06:35:02;18.99;86.85
52656;SHT85;35474;51.032;6.998;2023-07-29T06:37:28;19.01;86.98
52656;SHT85;35474;51.032;6.998;2023-07-29T06:39:55;19.06;87.20
52656;SHT85;35474;51.032;6.998;2023-07-29T06:42:21;19.12;87.10
52656;SHT85;35474;51.032;6.998;2023-07-29T06:44:48;19.01;86.55
52656;SHT85;35474;51.032;6.998;2023-07-29T06:47:14;19.08;87.14
52656;SHT85;35474;51.032;6.998;2023-07-29T06:49:41;19.05;87.17
52656;SHT85;35474;51.032;6.998;2023-07-29T06:52:07;19.01;87.16
52656;SHT85;35474;51.032;6.998;2023-07-29T06:54:34;19.02;87.30
52656;SHT85;35474;51.032;6.998;2023-07-29T06:57:00;18.94;87.16
52656;SHT85;35474;51.032;6.998;2023-07-29T06:59:27;19.01;87.08
52656;SHT85;35474;51.032;6.998;2023-07-29T07:01:53;19.12;86.94
52656;SHT85;35474;51.032;6.998;2023-07-29T07:04:20;19.09;86.75
52656;SHT85;35474;51.032;6.998;2023-07-29T07:06:46;19.29;86.46
52656;SHT85;35474;51.032;6.998;2023-07-29T07:09:13;19.29;86.11
52656;SHT85;35474;51.032;6.998;2023-07-29T07:11:39;19.47;85.78
52656;SHT85;35474;51.032;6.998;2023-07-29T07:14:06;19.81;85.57
52656;SHT85;35474;51.032;6.998;2023-07-29T07:16:32;19.59;84.11
52656;SHT85;35474;51.032;6.998;2023-07-29T07:18:59;19.45;84.22
52656;SHT85;35474;51.032;6.998;2023-07-29T07:21:25;19.71;84.97
52656;SHT85;35474;51.032;6.998;2023-07-29T07:23:52;19.76;84.12
52656;SHT85;35474;51.032;6.998;2023-07-29T07:26:18;19.78;82.90
52656;SHT85;35474;51.032;6.998;2023-07-29T07:28:45;19.87;82.50
52656;SHT85;35474;51.032;6.998;2023-07-29T07:31:15;19.93;83.59
52656;SHT85;35474;51.032;6.998;2023-07-29T07:33:45;19.78;81.02
52656;SHT85;35474;51.032;6.998;2023-07-29T07:36:12;19.76;81.55
52656;SHT85;35474;51.032;6.998;2023-07-29T07:38:38;19.74;80.68
52656;SHT85;35474;51.032;6.998;2023-07-29T07:41:05;20.17;80.72
52656;SHT85;35474;51.032;6.998;2023-07-29T07:43:31;19.97;79.71
52656;SHT85;35474;51.032;6.998;2023-07-29T07:46:04;20.13;79.11
52656;SHT85;35474;51.032;6.998;2023-07-29T07:48:31;20.14;79.47
52656;SHT85;35474;51.032;6.998;2023-07-29T07:50:59;20.01;79.18
52656;SHT85;35474;51.032;6.998;2023-07-29T07:53:26;19.90;79.49
52656;SHT85;35474;51.032;6.998;2023-07-29T07:55:52;19.78;80.47
52656;SHT85;35474;51.032;6.998;2023-07-29T07:58:19;19.81;79.80
52656;SHT85;35474;51.032;6.998;2023-07-29T08:00:45;20.17;79.58
52656;SHT85;35474;51.032;6.998;2023-07-29T08:03:12;20.03;79.22
52656;SHT85;35474;51.032;6.998;2023-07-29T08:05:39;20.01;78.14
52656;SHT85;35474;51.032;6.998;2023-07-29T08:08:05;20.07;78.06
52656;SHT85;35474;51.032;6.998;2023-07-29T08:10:32;20.17;77.91
52656;SHT85;35474;51.032;6.998;2023-07-29T08:12:59;20.44;77.87
52656;SHT85;35474;51.032;6.998;2023-07-29T08:15:27;20.75;76.56
52656;SHT85;35474;51.032;6.998;2023-07-29T08:17:53;21.81;73.66
52656;SHT85;35474;51.032;6.998;2023-07-29T08:20:20;21.93;71.16
52656;SHT85;35474;51.032;6.998;2023-07-29T08:22:46;21.37;71.67
52656;SHT85;35474;51.032;6.998;2023-07-29T08:25:13;21.42;71.81
52656;SHT85;35474;51.032;6.998;2023-07-29T08:27:39;21.64;71.25
52656;SHT85;35474;51.032;6.998;2023-07-29T08:30:06;21.98;70.87
52656;SHT85;35474;51.032;6.998;2023-07-29T08:32:33;20.73;72.77
52656;SHT85;35474;51.032;6.998;2023-07-29T08:34:59;21.69;70.96
52656;SHT85;35474;51.032;6.998;2023-07-29T08:37:26;22.68;68.90
52656;SHT85;35474;51.032;6.998;2023-07-29T08:39:54;22.48;68.12
52656;SHT85;35474;51.032;6.998;2023-07-29T08:42:20;21.58;68.96
52656;SHT85;35474;51.032;6.998;2023-07-29T08:44:49;21.60;68.22
52656;SHT85;35474;51.032;6.998;2023-07-29T08:47:20;22.08;66.85
52656;SHT85;35474;51.032;6.998;2023-07-29T08:49:46;21.27;69.23
52656;SHT85;35474;51.032;6.998;2023-07-29T08:52:14;20.99;70.81
52656;SHT85;35474;51.032;6.998;2023-07-29T08:54:41;20.73;71.00
52656;SHT85;35474;51.032;6.998;2023-07-29T08:57:08;20.72;71.40
52656;SHT85;35474;51.032;6.998;2023-07-29T08:59:35;20.96;70.81
52656;SHT85;35474;51.032;6.998;2023-07-29T09:02:02;20.76;70.53
52656;SHT85;35474;51.032;6.998;2023-07-29T09:04:28;20.72;71.17
52656;SHT85;35474;51.032;6.998;2023-07-29T09:06:55;20.53;71.06
52656;SHT85;35474;51.032;6.998;2023-07-29T09:09:22;20.83;70.94
52656;SHT85;35474;51.032;6.998;2023-07-29T09:11:49;20.82;70.89
52656;SHT85;35474;51.032;6.998;2023-07-29T09:14:15;20.99;70.21
52656;SHT85;35474;51.032;6.998;2023-07-29T09:16:42;20.97;70.45
52656;SHT85;35474;51.032;6.998;2023-07-29T09:19:09;20.86;70.44
52656;SHT85;35474;51.032;6.998;2023-07-29T09:21:38;20.75;71.11
52656;SHT85;35474;51.032;6.998;2023-07-29T09:24:05;20.71;71.07
52656;SHT85;35474;51.032;6.998;2023-07-29T09:26:34;20.73;71.95
52656;SHT85;35474;51.032;6.998;2023-07-29T09:29:02;21.04;71.38
52656;SHT85;35474;51.032;6.998;2023-07-29T09:31:29;21.38;69.98
52656;SHT85;35474;51.032;6.998;2023-07-29T09:33:59;21.13;71.23
52656;SHT85;35474;51.032;6.998;2023-07-29T09:36:27;21.10;71.52
52656;SHT85;35474;51.032;6.998;2023-07-29T09:38:56;21.00;70.74
52656;SHT85;35474;51.032;6.998;2023-07-29T09:41:24;21.03;70.62
52656;SHT85;35474;51.032;6.998;2023-07-29T09:43:55;21.27;70.75
52656;SHT85;35474;51.032;6.998;2023-07-29T09:46:24;21.26;69.98
52656;SHT85;35474;51.032;6.998;2023-07-29T09:48:53;21.21;70.18
52656;SHT85;35474;51.032;6.998;2023-07-29T09:51:23;21.00;70.53
52656;SHT85;35474;51.032;6.998;2023-07-29T09:53:50;21.27;70.14
52656;SHT85;35474;51.032;6.998;2023-07-29T09:56:23;21.64;69.27
52656;SHT85;35474;51.032;6.998;2023-07-29T09:58:55;21.86;67.72
52656;SHT85;35474;51.032;6.998;2023-07-29T10:01:23;21.72;68.39
52656;SHT85;35474;51.032;6.998;2023-07-29T10:03:50;21.32;69.19
52656;SHT85;35474;51.032;6.998;2023-07-29T10:06:18;21.10;69.40
52656;SHT85;35474;51.032;6.998;2023-07-29T10:08:45;21.09;69.83
52656;SHT85;35474;51.032;6.998;2023-07-29T10:11:13;21.14;70.08
52656;SHT85;35474;51.032;6.998;2023-07-29T10:13:40;21.61;69.60
52656;SHT85;35474;51.032;6.998;2023-07-29T10:16:08;21.55;68.06
52656;SHT85;35474;51.032;6.998;2023-07-29T10:18:35;22.08;67.33
52656;SHT85;35474;51.032;6.998;2023-07-29T10:21:02;22.16;67.03
52656;SHT85;35474;51.032;6.998;2023-07-29T10:23:34;21.40;70.07
52656;SHT85;35474;51.032;6.998;2023-07-29T10:26:06;21.40;70.59
52656;SHT85;35474;51.032;6.998;2023-07-29T10:28:38;21.35;70.81
52656;SHT85;35474;51.032;6.998;2023-07-29T10:31:08;21.23;71.83
52656;SHT85;35474;51.032;6.998;2023-07-29T10:33:35;21.51;71.05
52656;SHT85;35474;51.032;6.998;2023-07-29T10:36:03;21.23;71.25
52656;SHT85;35474;51.032;6.998;2023-07-29T10:38:30;21.14;72.56
52656;SHT85;35474;51.032;6.998;2023-07-29T10:40:57;21.02;72.43
52656;SHT85;35474;51.032;6.998;2023-07-29T10:43:28;20.80;73.45
52656;SHT85;35474;51.032;6.998;2023-07-29T10:45:57;20.35;75.39
52656;SHT85;35474;51.032;6.998;2023-07-29T10:48:42;20.26;77.34
52656;SHT85;35474;51.032;6.998;2023-07-29T10:53:48;20.52;75.46
52656;SHT85;35474;51.032;6.998;2023-07-29T10:56:32;20.59;74.69
52656;SHT85;35474;51.032;6.998;2023-07-29T11:01:41;20.52;74.45
52656;SHT85;35474;51.032;6.998;2023-07-29T11:09:42;20.75;74.31
52656;SHT85;35474;51.032;6.998;2023-07-29T11:12:35;20.90;73.96
52656;SHT85;35474;51.032;6.998;2023-07-29T11:20:32;22.26;70.42
52656;SHT85;35474;51.032;6.998;2023-07-29T11:23:00;22.16;69.52
52656;SHT85;35474;51.032;6.998;2023-07-29T11:25:29;21.45;71.24
52656;SHT85;35474;51.032;6.998;2023-07-29T11:27:57;21.27;71.29
52656;SHT85;35474;51.032;6.998;2023-07-29T11:30:25;22.13;69.43
52656;SHT85;35474;51.032;6.998;2023-07-29T11:32:57;22.53;68.45
52656;SHT85;35474;51.032;6.998;2023-07-29T11:35:24;22.60;68.85
52656;SHT85;35474;51.032;6.998;2023-07-29T11:37:53;23.43;65.90
52656;SHT85;35474;51.032;6.998;2023-07-29T11:40:21;23.18;66.00
52656;SHT85;35474;51.032;6.998;2023-07-29T11:42:49;23.05;66.79
52656;SHT85;35474;51.032;6.998;2023-07-29T11:45:17;24.37;63.21
52656;SHT85;35474;51.032;6.998;2023-07-29T11:47:45;24.10;64.46
52656;SHT85;35474;51.032;6.998;2023-07-29T11:50:13;23.41;67.07
52656;SHT85;35474;51.032;6.998;2023-07-29T11:52:44;23.12;66.67
52656;SHT85;35474;51.032;6.998;2023-07-29T11:55:12;23.01;67.43
52656;SHT85;35474;51.032;6.998;2023-07-29T11:57:41;23.35;65.91
52656;SHT85;35474;51.032;6.998;2023-07-29T12:00:09;22.84;68.71
52656;SHT85;35474;51.032;6.998;2023-07-29T12:02:38;22.20;68.27
52656;SHT85;35474;51.032;6.998;2023-07-29T12:05:06;22.43;68.64
52656;SHT85;35474;51.032;6.998;2023-07-29T12:07:34;22.25;69.07
52656;SHT85;35474;51.032;6.998;2023-07-29T12:10:02;23.16;67.23
52656;SHT85;35474;51.032;6.998;2023-07-29T12:12:29;23.97;64.61
52656;SHT85;35474;51.032;6.998;2023-07-29T12:14:56;22.98;67.39
52656;SHT85;35474;51.032;6.998;2023-07-29T12:17:23;24.04;64.76
52656;SHT85;35474;51.032;6.998;2023-07-29T12:19:53;22.95;66.61
52656;SHT85;35474;51.032;6.998;2023-07-29T12:22:20;23.28;66.07
52656;SHT85;35474;51.032;6.998;2023-07-29T12:24:48;22.66;67.79
52656;SHT85;35474;51.032;6.998;2023-07-29T12:27:17;23.08;66.73
52656;SHT85;35474;51.032;6.998;2023-07-29T12:29:44;23.25;66.70
52656;SHT85;35474;51.032;6.998;2023-07-29T12:32:12;23.52;64.99
52656;SHT85;35474;51.032;6.998;2023-07-29T12:34:40;23.43;65.69
52656;SHT85;35474;51.032;6.998;2023-07-29T12:37:06;23.45;64.85
52656;SHT85;35474;51.032;6.998;2023-07-29T12:39:34;23.45;66.16
52656;SHT85;35474;51.032;6.998;2023-07-29T12:42:05;23.97;62.62
52656;SHT85;35474;51.032;6.998;2023-07-29T12:44:33;24.62;63.02
52656;SHT85;35474;51.032;6.998;2023-07-29T12:47:01;24.85;61.08
52656;SHT85;35474;51.032;6.998;2023-07-29T12:49:30;25.29;58.67
52656;SHT85;35474;51.032;6.998;2023-07-29T12:51:58;24.16;62.68
52656;SHT85;35474;51.032;6.998;2023-07-29T12:54:27;23.55;65.11
52656;SHT85;35474;51.032;6.998;2023-07-29T12:56:54;24.88;62.13
52656;SHT85;35474;51.032;6.998;2023-07-29T12:59:21;24.73;61.11
52656;SHT85;35474;51.032;6.998;2023-07-29T13:01:47;23.69;63.96
52656;SHT85;35474;51.032;6.998;2023-07-29T13:04:14;23.62;64.49
52656;SHT85;35474;51.032;6.998;2023-07-29T13:06:41;23.73;64.15
52656;SHT85;35474;51.032;6.998;2023-07-29T13:09:07;23.55;64.85
52656;SHT85;35474;51.032;6.998;2023-07-29T13:11:34;22.91;65.87
52656;SHT85;35474;51.032;6.998;2023-07-29T13:14:01;23.01;65.93
52656;SHT85;35474;51.032;6.998;2023-07-29T13:16:28;23.01;66.04
52656;SHT85;35474;51.032;6.998;2023-07-29T13:18:55;22.64;66.90
52656;SHT85;35474;51.032;6.998;2023-07-29T13:21:22;22.77;66.67
52656;SHT85;35474;51.032;6.998;2023-07-29T13:23:50;22.92;66.94
52656;SHT85;35474;51.032;6.998;2023-07-29T13:26:17;22.91;67.04
52656;SHT85;35474;51.032;6.998;2023-07-29T13:28:46;22.61;67.04
52656;SHT85;35474;51.032;6.998;2023-07-29T13:31:12;22.77;67.83
52656;SHT85;35474;51.032;6.998;2023-07-29T13:33:39;22.67;67.71
52656;SHT85;35474;51.032;6.998;2023-07-29T13:36:06;22.61;67.31
52656;SHT85;35474;51.032;6.998;2023-07-29T13:38:34;22.44;67.14
52656;SHT85;35474;51.032;6.998;2023-07-29T13:41:01;22.41;67.23
52656;SHT85;35474;51.032;6.998;2023-07-29T13:43:28;22.37;67.96
52656;SHT85;35474;51.032;6.998;2023-07-29T13:45:55;22.20;68.75
52656;SHT85;35474;51.032;6.998;2023-07-29T13:48:21;21.78;70.20
52656;SHT85;35474;51.032;6.998;2023-07-29T13:50:48;21.60;71.66
52656;SHT85;35474;51.032;6.998;2023-07-29T13:53:14;21.45;72.19
52656;SHT85;35474;51.032;6.998;2023-07-29T13:55:41;21.31;73.87
52656;SHT85;35474;51.032;6.998;2023-07-29T13:58:08;21.11;75.86
52656;SHT85;35474;51.032;6.998;2023-07-29T14:00:34;20.84;78.54
52656;SHT85;35474;51.032;6.998;2023-07-29T14:03:01;20.56;78.41
52656;SHT85;35474;51.032;6.998;2023-07-29T14:05:28;20.62;77.54
52656;SHT85;35474;51.032;6.998;2023-07-29T14:07:54;20.61;80.33
52656;SHT85;35474;51.032;6.998;2023-07-29T14:10:21;20.52;80.99
52656;SHT85;35474;51.032;6.998;2023-07-29T14:12:47;20.52;82.12
52656;SHT85;35474;51.032;6.998;2023-07-29T14:15:14;20.49;83.06
52656;SHT85;35474;51.032;6.998;2023-07-29T14:17:40;20.53;82.98
52656;SHT85;35474;51.032;6.998;2023-07-29T14:20:07;20.68;81.56
52656;SHT85;35474;51.032;6.998;2023-07-29T14:22:35;20.84;81.63
52656;SHT85;35474;51.032;6.998;2023-07-29T14:25:02;21.16;83.01
52656;SHT85;35474;51.032;6.998;2023-07-29T14:27:29;22.46;78.22
52656;SHT85;35474;51.032;6.998;2023-07-29T14:29:55;23.04;74.40
52656;SHT85;35474;51.032;6.998;2023-07-29T14:32:22;22.37;73.84
52656;SHT85;35474;51.032;6.998;2023-07-29T14:34:51;22.12;74.84
52656;SHT85;35474;51.032;6.998;2023-07-29T14:37:17;22.32;74.73
52656;SHT85;35474;51.032;6.998;2023-07-29T14:39:45;22.53;72.73
52656;SHT85;35474;51.032;6.998;2023-07-29T14:42:11;22.05;73.20
52656;SHT85;35474;51.032;6.998;2023-07-29T14:44:39;21.92;74.28
52656;SHT85;35474;51.032;6.998;2023-07-29T14:47:07;22.05;74.54
52656;SHT85;35474;51.032;6.998;2023-07-29T14:49:34;22.00;75.38
52656;SHT85;35474;51.032;6.998;2023-07-29T14:52:00;21.96;74.28
52656;SHT85;35474;51.032;6.998;2023-07-29T14:54:27;22.09;75.46
52656;SHT85;35474;51.032;6.998;2023-07-29T14:56:54;22.25;75.16
52656;SHT85;35474;51.032;6.998;2023-07-29T14:59:20;22.29;73.82
52656;SHT85;35474;51.032;6.998;2023-07-29T15:01:47;22.25;74.44
52656;SHT85;35474;51.032;6.998;2023-07-29T15:04:14;22.09;74.67
52656;SHT85;35474;51.032;6.998;2023-07-29T15:06:40;22.13;74.38
52656;SHT85;35474;51.032;6.998;2023-07-29T15:09:07;22.13;74.32
52656;SHT85;35474;51.032;6.998;2023-07-29T15:11:33;22.23;74.60
52656;SHT85;35474;51.032;6.998;2023-07-29T15:14:00;22.29;74.03
52656;SHT85;35474;51.032;6.998;2023-07-29T15:16:27;22.25;73.27
52656;SHT85;35474;51.032;6.998;2023-07-29T15:18:53;22.20;73.47
52656;SHT85;35474;51.032;6.998;2023-07-29T15:21:20;22.25;71.98
52656;SHT85;35474;51.032;6.998;2023-07-29T15:23:47;22.05;73.06
52656;SHT85;35474;51.032;6.998;2023-07-29T15:26:13;22.03;72.65
52656;SHT85;35474;51.032;6.998;2023-07-29T15:28:40;22.02;71.97
52656;SHT85;35474;51.032;6.998;2023-07-29T15:31:06;22.03;71.54
52656;SHT85;35474;51.032;6.998;2023-07-29T15:33:33;22.16;71.05
52656;SHT85;35474;51.032;6.998;2023-07-29T15:36:03;22.43;71.35
52656;SHT85;35474;51.032;6.998;2023-07-29T15:38:30;22.67;71.20
52656;SHT85;35474;51.032;6.998;2023-07-29T15:40:56;22.51;70.74
52656;SHT85;35474;51.032;6.998;2023-07-29T15:43:23;22.51;70.95
52656;SHT85;35474;51.032;6.998;2023-07-29T15:45:50;22.88;70.66
52656;SHT85;35474;51.032;6.998;2023-07-29T15:48:16;23.01;69.43
52656;SHT85;35474;51.032;6.998;2023-07-29T15:50:43;23.87;67.93
52656;SHT85;35474;51.032;6.998;2023-07-29T15:53:09;23.62;67.10
52656;SHT85;35474;51.032;6.998;2023-07-29T15:55:36;24.23;66.05
52656;SHT85;35474;51.032;6.998;2023-07-29T15:58:03;23.42;66.32